Date,TemperatureHighF,TemperatureAvgF,TemperatureLowF,DewpointHighF,DewpointAvgF,DewpointLowF,HumidityHigh,HumidityAvg,HumidityLow,PressureMaxIn,PressureMinIn,WindSpeedMaxMPH,WindSpeedAvgMPH,GustSpeedMaxMPH,PrecipitationSumIn
2014-2-11,87,67,53,78,64,52,99,92,70,29.98,29.89,9,2,9,0.00
2014-2-12,86,68,50,80,66,50,99,96,77,29.95,29.72,20,3,20,0.43
2014-2-13,71,64,48,69,62,47,99,94,80,29.90,29.65,19,5,19,0.09
2014-2-14,71,54,42,60,51,42,99,89,63,30.00,29.87,8,2,8,0.00
2014-2-15,78,61,46,72,57,45,99,89,73,30.05,29.86,14,3,14,0.00
2014-2-16,79,57,38,60,50,38,99,81,33,30.10,30.01,4,1,4,0.00
2014-2-17,86,63,43,69,57,43,99,83,49,30.12,30.02,6,2,6,0.00
2014-2-18,87,66,48,74,61,48,99,86,57,30.14,30.02,8,2,13,0.00
2014-2-19,89,66,50,76,62,50,99,88,63,30.08,29.95,7,2,9,0.00
2014-2-21,86,76,68,80,75,68,99,97,83,29.97,29.92,10,2,14,0.00
2014-2-22,92,75,65,85,73,64,99,95,73,30.02,29.89,8,2,10,0.00
2014-2-23,71,69,66,71,69,65,99,99,99,29.98,29.93,2,0,2,0.00
2014-2-28,75,65,49,67,60,48,99,86,69,30.00,29.90,7,2,11,0.18
2014-3-1,84,63,43,69,57,42,99,85,52,30.10,29.97,6,1,9,0.00
2014-3-2,54,53,52,54,53,52,99,99,99,30.06,30.03,0,0,0,0.00
2014-3-3,89,75,56,77,69,55,99,82,57,29.99,29.89,8,2,12,0.00
2014-3-4,90,70,54,79,65,54,99,85,53,29.97,29.84,7,1,9,0.00
2014-3-5,89,74,59,78,70,59,99,88,68,29.92,29.81,7,2,8,0.00
2014-3-6,81,70,62,81,69,61,99,99,96,29.91,29.66,11,2,17,0.48
2014-3-7,77,69,61,72,67,61,99,92,76,29.95,29.69,13,4,16,0.00
2014-3-8,77,62,53,63,57,52,99,86,59,30.06,29.93,10,3,11,0.00
2014-3-9,55,53,51,55,53,51,99,99,99,30.05,30.02,0,0,1,0.00
2014-3-10,85,75,58,73,68,58,99,81,63,30.04,29.89,9,2,9,0.00
2014-3-11,88,68,53,77,64,52,99,89,58,29.94,29.75,8,2,11,0.00
2014-3-12,87,77,58,83,74,58,99,93,73,29.80,29.69,11,3,13,0.00
2014-3-13,80,69,49,73,60,48,99,77,40,30.08,29.77,13,4,15,0.00
2014-3-14,82,69,48,66,60,47,99,75,55,30.16,30.03,11,4,12,0.00
2014-3-15,87,67,49,73,62,49,99,84,56,30.08,29.91,10,1,12,0.00
2014-3-16,88,74,53,77,69,53,99,86,62,29.95,29.69,17,4,17,0.00
2014-3-17,88,77,68,84,77,68,99,98,88,29.74,29.59,17,6,20,0.00
2014-3-18,79,79,78,79,78,78,99,99,99,29.65,29.64,12,8,17,0.00
2014-3-19,86,70,50,75,66,49,99,88,65,29.99,29.90,7,2,11,0.00
2014-3-21,88,78,61,78,72,60,99,82,60,29.96,29.87,8,3,13,0.00
2014-3-22,87,71,55,80,68,55,99,90,66,30.00,29.88,6,1,8,0.00
2014-3-23,79,72,64,79,72,64,99,99,99,29.96,29.90,8,1,8,0.00
2014-3-24,74,70,66,74,70,65,99,99,99,29.97,29.83,8,2,11,0.18
2014-3-25,81,68,57,81,68,57,99,99,98,29.95,29.79,8,2,13,0.46
2014-3-26,72,60,52,59,50,43,99,71,44,30.17,29.95,14,5,17,0.00
2014-3-27,80,66,52,70,62,52,99,88,68,30.19,30.07,10,3,17,0.00
2014-3-28,88,80,62,81,76,62,99,89,75,30.09,29.90,11,4,15,0.01
2014-3-29,83,74,67,82,74,66,99,99,99,29.96,29.84,17,4,17,0.70
2014-3-30,81,69,57,69,63,56,99,85,45,30.00,29.84,5,2,9,0.00
2014-3-31,84,65,49,69,60,49,99,85,58,30.05,29.96,8,2,11,0.00
2014-4-1,76,58,50,72,57,50,99,98,85,30.07,30.00,2,0,6,0.00
2014-4-2,92,70,50,76,65,50,99,86,51,30.08,29.98,8,2,13,0.00
2014-4-3,88,65,54,78,62,54,99,93,68,30.06,29.99,10,2,11,0.00
2014-8-29,103,82,72,95,80,72,99,95,68,30.10,29.98,11,0,22,0.50
2014-8-31,76,75,74,75,75,74,99,99,99,30.09,30.08,0,0,0,0.01
2014-9-1,77,76,74,77,75,74,99,99,99,30.09,30.03,1,0,3,1.35
2014-9-4,98,86,77,88,83,77,99,90,73,30.12,30.00,2,0,4,0.00
2014-9-5,100,80,72,92,79,72,99,96,78,30.12,30.00,4,0,6,0.60
2014-9-6,100,80,71,92,78,70,99,96,72,30.07,29.97,3,0,6,0.14
2014-9-7,98,79,72,93,78,72,99,98,79,30.03,29.95,5,0,9,0.08
2014-9-8,97,80,71,92,79,71,99,97,82,30.06,29.96,2,0,4,0.04
2014-9-9,99,80,71,90,78,71,99,96,74,30.06,29.97,2,0,8,0.86
2014-9-10,94,80,71,90,79,70,99,98,87,30.00,29.94,2,1,6,0.01
2014-9-11,97,81,71,91,79,71,99,95,77,30.02,29.92,6,0,10,1.05
2014-9-12,94,67,74,93,67,74,99,84,96,29.99,29.89,2,0,5,0.61
2014-9-13,96,80,73,90,78,73,99,96,75,30.07,29.95,3,0,8,0.07
2014-9-14,92,79,71,90,79,71,99,99,93,30.15,30.05,4,0,7,0.06
2014-9-15,98,83,70,91,80,70,99,92,69,30.16,30.05,5,0,10,0.01
2014-9-16,97,81,72,91,80,72,99,96,74,30.13,29.97,2,0,4,0.01
2014-9-17,93,78,72,91,77,71,99,99,90,30.02,29.89,4,0,6,0.25
2014-9-18,97,81,72,91,80,72,99,97,82,29.95,29.86,3,0,5,0.81
2014-9-19,84,78,74,84,78,74,99,99,99,29.96,29.88,0,0,2,0.21
2014-9-20,87,78,74,87,78,74,99,99,99,29.96,29.90,0,0,2,0.19
2014-9-21,94,82,74,91,80,74,99,95,80,30.04,29.92,2,0,4,0.01
2014-9-22,93,78,72,92,78,72,99,99,93,30.06,29.94,4,0,9,0.07
2014-9-23,87,76,72,87,76,72,99,99,98,30.06,29.92,2,0,4,0.18
2014-9-24,94,80,71,90,79,71,99,97,81,30.06,29.96,3,0,5,0.50
2014-9-25,96,71,74,91,70,74,99,87,86,30.05,29.96,3,1,5,0.01
2014-9-26,94,78,74,93,78,74,99,99,98,30.00,29.92,4,0,8,1.12
2014-9-27,95,80,73,92,79,73,99,98,86,30.00,29.90,2,1,7,0.76
2014-9-28,98,80,74,93,79,74,99,98,81,29.99,29.90,3,0,6,0.33
2014-9-29,96,82,72,92,81,72,99,97,82,29.95,29.82,3,0,6,0.01
2014-10-14,94,84,73,92,83,73,99,97,89,30.02,29.92,3,1,8,0.11
2014-10-15,92,80,72,90,80,72,99,99,90,29.98,29.90,1,0,4,0.15
2014-10-17,84,66,60,74,64,59,99,96,72,29.97,29.91,0,0,0,0.00
2014-10-18,90,71,56,82,68,55,99,91,67,30.00,29.91,2,0,5,0.00
2014-10-19,90,73,59,82,70,59,99,91,69,30.02,29.94,4,0,7,0.00
2014-10-20,93,75,60,84,73,60,99,93,73,30.03,29.91,2,0,4,0.00
2014-10-21,82,75,71,82,75,71,99,99,99,29.97,29.89,2,0,5,0.17
2014-10-22,86,76,69,86,75,68,99,99,97,29.98,29.90,3,0,6,0.00
2014-10-23,84,76,72,83,75,71,99,99,95,29.94,29.86,3,1,6,0.00
2014-10-24,86,75,67,82,73,66,99,95,82,29.93,29.82,6,2,11,0.00
2014-10-25,86,71,60,76,68,59,99,90,65,29.97,29.89,4,1,9,0.00
2014-10-26,88,70,58,77,66,58,99,89,64,30.03,29.94,4,1,8,0.00
2014-10-27,88,68,52,78,65,52,99,91,68,30.11,30.00,3,0,6,0.00
2014-10-28,92,69,57,81,67,57,99,93,68,30.15,30.07,4,1,11,0.00
2014-10-31,88,76,56,85,74,56,99,94,83,29.93,29.80,3,1,8,0.02
2014-11-1,79,62,51,72,58,51,99,90,70,30.18,29.93,4,1,9,0.00
2014-11-2,73,47,42,55,41,42,99,66,51,30.30,30.19,5,1,9,0.00
2014-11-3,80,34,59,70,31,59,99,41,71,30.30,30.23,3,0,9,0.00
2014-11-4,82,67,55,74,64,55,99,91,69,30.28,30.14,5,1,10,0.00
2014-11-5,86,73,60,80,70,59,99,93,74,30.21,30.06,5,1,10,0.00
2014-11-6,92,74,63,82,71,62,99,92,65,30.13,29.97,4,0,7,0.00
2014-11-7,90,71,58,82,69,58,99,95,73,30.01,29.90,2,0,6,0.01
2014-11-8,86,71,58,81,70,58,99,96,83,29.95,29.83,2,0,4,0.00
2014-11-9,68,64,62,67,64,61,99,99,99,29.94,29.82,4,1,8,0.67
2014-11-10,82,68,58,78,67,57,99,96,84,29.98,29.90,3,1,6,0.01
2014-11-11,83,65,51,74,63,51,99,93,73,29.99,29.90,4,0,8,0.00
2014-11-12,88,66,52,78,63,52,99,91,69,30.06,29.95,4,0,7,0.00
2014-11-13,88,66,52,79,64,51,99,93,72,30.07,29.95,4,0,6,0.00
2014-11-14,81,65,55,78,65,54,99,98,87,30.14,29.99,4,1,8,0.00
2014-11-15,86,66,50,79,65,49,99,96,78,30.22,30.08,2,0,5,0.00
2014-11-16,89,72,60,84,70,60,99,95,81,30.19,30.03,4,0,8,0.00
2014-11-17,91,75,63,88,75,62,99,98,90,30.04,29.92,4,1,11,0.52
2014-11-18,71,61,50,71,60,50,99,99,99,30.26,29.97,4,1,9,0.09
2014-11-19,65,56,48,64,56,48,99,99,95,30.30,30.18,8,2,14,0.00
2014-11-20,80,65,53,74,64,53,99,95,79,30.23,30.10,7,3,12,0.00
2014-11-21,72,67,61,72,66,61,99,99,99,30.22,30.14,6,2,13,0.01
2014-11-22,82,74,69,81,74,69,99,99,99,30.18,30.05,5,2,13,0.02
2014-11-23,91,77,69,88,77,69,99,99,91,30.04,29.88,4,1,8,0.01
2014-11-24,93,80,70,91,78,70,99,97,83,30.02,29.92,3,0,7,0.01
2014-11-25,90,81,76,90,81,75,99,99,97,30.01,29.89,5,1,10,0.00
2014-11-26,79,63,44,78,63,44,99,98,89,30.23,29.89,5,1,10,0.31
2014-11-27,79,59,41,68,55,41,99,90,67,30.32,30.17,4,1,8,0.01
2014-11-28,72,56,45,58,51,45,99,86,51,30.31,30.19,7,2,11,0.00
2014-11-29,79,61,49,71,59,49,99,93,75,30.28,30.18,5,1,12,0.00
2014-11-30,82,66,51,73,63,51,99,91,65,30.30,30.18,5,1,11,0.00
2014-12-1,85,71,59,79,70,59,99,96,80,30.28,30.14,5,2,14,0.00
2014-12-2,83,72,64,81,72,64,99,99,93,30.18,30.08,4,1,11,0.00
2014-12-3,87,72,62,82,71,62,99,96,77,30.16,30.06,3,1,8,0.00
2014-12-4,87,73,63,83,72,63,99,98,87,30.18,30.06,5,1,10,0.00
2014-12-5,85,73,67,84,73,66,99,99,91,30.21,30.11,3,1,6,0.05
2014-12-6,88,74,64,82,72,63,99,96,80,30.20,30.08,3,0,6,0.02
2014-12-7,77,66,60,77,66,59,99,99,99,30.13,30.01,4,0,8,0.00
2014-12-8,80,64,54,75,62,54,99,96,80,30.12,30.00,3,1,5,0.00
2014-12-9,71,60,49,70,60,49,99,99,97,30.10,30.01,3,1,7,0.01
2014-12-10,72,35,43,59,33,42,99,56,62,30.13,30.08,3,0,5,0.00
2014-12-11,-200,0,200,-100,0,200,0,0,100,0.00,40.00,0,0,0,0.00
2014-12-12,69,35,63,64,32,56,91,43,76,30.25,30.17,0,0,0,0.00
2014-12-13,72,64,57,67,57,50,88,80,75,30.20,30.06,0,0,0,0.00
2014-12-14,70,62,55,65,55,47,86,78,73,30.13,30.03,0,0,0,0.00
2014-12-15,70,62,55,66,55,46,88,78,72,30.17,30.06,0,0,0,0.00
2014-12-16,72,64,57,68,58,49,89,80,74,30.23,30.13,0,0,0,0.00
2014-12-17,86,64,53,71,57,50,99,79,59,30.23,30.09,2,0,4,0.04
2014-12-18,81,62,48,73,60,47,99,94,78,30.20,30.08,3,0,7,0.00
2014-12-19,85,59,43,71,56,42,99,91,64,30.14,30.00,2,0,6,0.00
2014-12-20,86,64,48,78,62,47,99,94,74,30.12,30.01,2,0,6,0.00
2014-12-21,87,69,55,82,68,54,99,98,85,30.11,29.99,2,0,7,0.00
2014-12-22,87,73,63,84,72,62,99,98,88,30.04,29.92,4,1,8,0.00
2014-12-23,89,76,62,86,74,62,99,97,76,29.97,29.87,4,1,9,0.00
2014-12-24,89,77,70,87,76,70,99,99,95,29.99,29.88,5,2,13,0.20
2014-12-25,77,67,60,74,66,60,99,96,83,30.20,29.99,6,1,10,0.00
2014-12-26,78,67,57,78,67,56,99,99,99,30.22,30.13,4,1,8,0.06
2014-12-27,84,72,63,83,72,63,99,99,99,30.26,30.13,2,0,8,0.01